createdAt,value
2019-04-14T00:00:36.413Z,975.18
2019-04-14T00:01:36.954Z,975.21
2019-04-14T00:02:36.445Z,975.17
2019-04-14T00:03:36.855Z,975.21
2019-04-14T00:04:36.369Z,975.21
2019-04-14T00:05:36.977Z,975.15
2019-04-14T00:06:37.522Z,975.21
2019-04-14T00:07:36.374Z,975.14
2019-04-14T00:08:37.209Z,975.16
2019-04-14T00:09:36.404Z,975.08
2019-04-14T00:10:36.299Z,975.11
2019-04-14T00:11:36.544Z,975.13
2019-04-14T00:12:36.279Z,975.12
2019-04-14T00:13:37.094Z,975.05
2019-04-14T00:14:36.274Z,975.09
2019-04-14T00:15:41.951Z,975.05
2019-04-14T00:16:38.035Z,975.04
2019-04-14T00:17:36.933Z,975.03
2019-04-14T00:18:36.211Z,975.00
2019-04-14T00:19:36.967Z,975.04
2019-04-14T00:20:36.190Z,975.02
2019-04-14T00:21:36.757Z,975.06
2019-04-14T00:22:36.166Z,974.98
2019-04-14T00:23:36.982Z,975.01
2019-04-14T00:24:36.170Z,975.00
2019-04-14T00:25:37.003Z,974.97
2019-04-14T00:26:36.127Z,975.05
2019-04-14T00:27:36.710Z,975.05
2019-04-14T00:28:36.103Z,975.02
2019-04-14T00:29:37.123Z,975.01
2019-04-14T00:30:36.085Z,975.01
2019-04-14T00:31:37.100Z,974.96
2019-04-14T00:32:36.081Z,975.00
2019-04-14T00:33:36.683Z,975.01
2019-04-14T00:34:36.056Z,975.05
2019-04-14T00:35:36.408Z,974.99
2019-04-14T00:36:37.035Z,974.99
2019-04-14T00:37:36.012Z,974.99
2019-04-14T00:38:36.905Z,974.96
2019-04-14T00:39:35.986Z,975.01
2019-04-14T00:40:36.796Z,975.03
2019-04-14T00:41:43.900Z,974.97
2019-04-14T00:42:36.950Z,974.97
2019-04-14T00:43:35.947Z,974.98
2019-04-14T00:44:36.502Z,974.93
2019-04-14T00:45:43.470Z,974.93
2019-04-14T00:46:36.925Z,974.94
2019-04-14T00:47:49.243Z,974.93
2019-04-14T00:48:36.926Z,974.94
2019-04-14T00:49:35.887Z,974.92
2019-04-14T00:50:36.609Z,974.90
2019-04-14T00:51:38.258Z,974.95
2019-04-14T00:52:35.862Z,974.88
2019-04-14T00:53:36.071Z,974.92
2019-04-14T00:54:36.992Z,974.90
2019-04-14T00:55:35.837Z,974.89
2019-04-14T00:56:36.881Z,974.85
2019-04-14T00:57:35.796Z,974.88
2019-04-14T00:58:36.805Z,974.89
2019-04-14T00:59:35.763Z,974.90
2019-04-14T01:00:36.475Z,974.93
2019-04-14T01:01:35.746Z,974.92
2019-04-14T01:02:36.428Z,974.89
2019-04-14T01:03:35.731Z,974.96
2019-04-14T01:04:36.105Z,974.87
2019-04-14T01:05:36.021Z,974.90
2019-04-14T01:06:36.120Z,974.90
2019-04-14T01:07:36.909Z,974.87
2019-04-14T01:08:35.968Z,974.88
2019-04-14T01:09:36.888Z,974.88
2019-04-14T01:10:36.738Z,974.91
2019-04-14T01:11:35.742Z,974.87
2019-04-14T01:12:36.629Z,974.87
2019-04-14T01:13:35.613Z,974.88
2019-04-14T01:14:36.557Z,974.88
2019-04-14T01:15:50.125Z,974.85
2019-04-14T01:16:36.601Z,974.88
2019-04-14T01:17:35.599Z,974.93
2019-04-14T01:18:36.430Z,974.89
2019-04-14T01:19:35.548Z,974.84
2019-04-14T01:20:36.389Z,974.85
2019-04-14T01:21:35.532Z,974.86
2019-04-14T01:22:35.867Z,974.87
2019-04-14T01:23:35.511Z,974.82
2019-04-14T01:24:35.994Z,974.83
2019-04-14T01:25:36.731Z,974.83
2019-04-14T01:26:35.670Z,974.87
2019-04-14T01:27:36.292Z,974.90
2019-04-14T01:28:35.491Z,974.82
2019-04-14T01:29:36.287Z,974.82
2019-04-14T01:30:35.436Z,974.87
2019-04-14T01:31:35.983Z,974.82
2019-04-14T01:32:35.417Z,974.81
2019-04-14T01:33:35.863Z,974.81
2019-04-14T01:34:35.398Z,974.84
2019-04-14T01:35:35.742Z,974.83
2019-04-14T01:36:36.594Z,974.83
2019-04-14T01:37:35.471Z,974.84
2019-04-14T01:38:36.377Z,974.87
2019-04-14T01:39:35.344Z,974.81
2019-04-14T01:40:35.928Z,974.78
2019-04-14T01:41:35.318Z,974.81
2019-04-14T01:42:35.556Z,974.85
2019-04-14T01:43:36.392Z,974.85
2019-04-14T01:44:35.286Z,974.77
2019-04-14T01:45:35.932Z,974.84
2019-04-14T01:46:35.840Z,974.83
2019-04-14T01:47:35.643Z,974.85
2019-04-14T01:48:35.242Z,974.84
2019-04-14T01:49:35.476Z,974.81
2019-04-14T01:50:35.214Z,974.82
2019-04-14T01:51:35.349Z,974.82
2019-04-14T01:52:36.243Z,974.84
2019-04-14T01:53:35.730Z,974.84
2019-04-14T01:54:35.172Z,974.88
2019-04-14T01:55:35.227Z,974.87
2019-04-14T01:56:36.236Z,974.81
2019-04-14T01:57:35.155Z,974.87
2019-04-14T01:58:36.109Z,974.88
2019-04-14T01:59:35.110Z,974.85
2019-04-14T02:00:35.880Z,974.87
2019-04-14T02:01:35.101Z,974.86
2019-04-14T02:02:35.775Z,974.91
2019-04-14T02:03:35.079Z,974.92
2019-04-14T02:04:35.539Z,974.85
2019-04-14T02:05:35.052Z,974.92
2019-04-14T02:06:35.635Z,974.94
2019-04-14T02:07:36.140Z,974.91
2019-04-14T02:08:35.225Z,974.97
2019-04-14T02:09:35.745Z,974.89
2019-04-14T02:10:34.996Z,974.87
2019-04-14T02:11:35.587Z,974.90
2019-04-14T02:12:34.979Z,974.91
2019-04-14T02:14:45.197Z,974.87
2019-04-14T02:15:44.875Z,974.93
2019-04-14T02:17:09.447Z,974.93
2019-04-14T02:54:53.705Z,974.92
2019-04-14T02:55:37.990Z,974.91
2019-04-14T02:56:29.239Z,974.96
2019-04-14T02:57:32.212Z,974.99
2019-04-14T02:58:36.507Z,974.97
2019-04-14T02:59:28.884Z,974.95
2019-04-14T03:00:31.651Z,975.01
2019-04-14T03:01:29.597Z,975.00
2019-04-14T03:03:44.023Z,974.99
2019-04-14T03:04:35.621Z,975.06
2019-04-14T03:05:34.347Z,975.10
2019-04-14T03:06:33.527Z,975.01
2019-04-14T03:07:37.803Z,975.10
2019-04-14T03:08:34.484Z,975.07
2019-04-14T03:09:37.956Z,975.06
2019-04-14T03:10:31.855Z,975.09
2019-04-14T03:11:34.449Z,975.09
2019-04-14T03:12:36.167Z,975.10
2019-04-14T03:14:30.965Z,975.10
2019-04-14T03:15:32.076Z,975.09
2019-04-14T03:16:43.789Z,975.07
2019-04-14T03:17:43.015Z,975.08
2019-04-14T03:19:41.135Z,975.10
2019-04-14T03:20:31.840Z,975.12
2019-04-14T03:21:34.361Z,975.08
2019-04-14T03:23:34.915Z,975.06
2019-04-14T03:24:32.865Z,975.13
2019-04-14T03:25:22.539Z,975.14
2019-04-14T03:26:25.007Z,975.10
2019-04-14T03:27:39.950Z,975.13
2019-04-14T03:28:31.814Z,975.13
2019-04-14T03:29:48.399Z,975.15
2019-04-14T03:30:57.841Z,975.14
2019-04-14T03:31:51.979Z,975.13
2019-04-14T03:33:00.635Z,975.19
2019-04-14T03:34:42.156Z,975.11
2019-04-14T03:37:45.152Z,975.06
2019-04-14T03:38:36.531Z,975.06
2019-04-14T03:40:45.223Z,975.05
2019-04-14T03:41:29.983Z,975.09
2019-04-14T03:42:35.758Z,975.11
2019-04-14T03:43:30.998Z,975.09
2019-04-14T03:44:37.620Z,975.10
2019-04-14T03:45:43.289Z,975.10
2019-04-14T03:46:39.724Z,975.09
2019-04-14T03:47:25.417Z,975.08
2019-04-14T03:49:33.254Z,975.12
2019-04-14T03:50:28.905Z,975.13
2019-04-14T03:51:38.294Z,975.16
2019-04-14T03:52:53.308Z,975.15
2019-04-14T03:53:30.507Z,975.15
2019-04-14T03:54:25.859Z,975.13
2019-04-14T03:55:24.072Z,975.17
2019-04-14T03:56:10.417Z,975.17
2019-04-14T03:57:04.559Z,975.11
2019-04-14T03:58:03.816Z,975.18
2019-04-14T03:59:04.216Z,975.16
2019-04-14T04:00:03.546Z,975.18
2019-04-14T04:01:04.005Z,975.14
2019-04-14T04:02:03.504Z,975.15
2019-04-14T04:03:04.143Z,975.16
2019-04-14T04:04:03.492Z,975.21
2019-04-14T04:05:04.203Z,975.16
2019-04-14T04:06:03.504Z,975.13
2019-04-14T04:07:03.874Z,975.15
2019-04-14T04:08:03.435Z,975.21
2019-04-14T04:09:03.943Z,975.21
2019-04-14T04:10:03.435Z,975.17
2019-04-14T04:11:04.037Z,975.21
2019-04-14T04:12:03.434Z,975.19
2019-04-14T04:13:04.091Z,975.22
2019-04-14T04:14:03.405Z,975.21
2019-04-14T04:15:03.965Z,975.26
2019-04-14T04:16:03.375Z,975.18
2019-04-14T04:17:03.656Z,975.29
2019-04-14T04:18:03.332Z,975.29
2019-04-14T04:19:08.740Z,975.26
2019-04-14T04:20:04.571Z,975.26
2019-04-14T04:21:03.313Z,975.27
2019-04-14T04:22:04.228Z,975.25
2019-04-14T04:23:03.296Z,975.30
2019-04-14T04:24:04.284Z,975.29
2019-04-14T04:25:03.257Z,975.24
2019-04-14T04:26:04.021Z,975.30
2019-04-14T04:27:03.235Z,975.31
2019-04-14T04:28:03.761Z,975.32
2019-04-14T04:29:03.207Z,975.30
2019-04-14T04:30:03.778Z,975.38
2019-04-14T04:31:03.189Z,975.34
2019-04-14T04:32:03.491Z,975.35
2019-04-14T04:33:04.388Z,975.40
2019-04-14T04:34:03.383Z,975.34
2019-04-14T04:35:04.226Z,975.39
2019-04-14T04:36:03.277Z,975.42
2019-04-14T04:37:03.923Z,975.38
2019-04-14T04:38:03.118Z,975.41
2019-04-14T04:39:03.934Z,975.38
2019-04-14T04:40:03.234Z,975.33
2019-04-14T04:41:03.768Z,975.38
2019-04-14T04:42:03.102Z,975.43
2019-04-14T04:43:03.800Z,975.37
2019-04-14T04:44:03.044Z,975.46
2019-04-14T04:45:03.953Z,975.45
2019-04-14T04:46:03.026Z,975.45
2019-04-14T04:47:03.477Z,975.43
2019-04-14T04:48:02.996Z,975.43
2019-04-14T04:49:09.573Z,975.49
2019-04-14T04:50:04.326Z,975.47
2019-04-14T04:51:03.015Z,975.53
2019-04-14T04:52:04.067Z,975.50
2019-04-14T04:53:02.985Z,975.49
2019-04-14T04:54:03.842Z,975.56
2019-04-14T04:55:02.983Z,975.55
2019-04-14T04:56:03.622Z,975.61
2019-04-14T04:57:02.932Z,975.63
2019-04-14T04:58:03.412Z,975.60
2019-04-14T04:59:03.320Z,975.57
2019-04-14T05:00:03.015Z,975.58
2019-04-14T05:01:03.518Z,975.56
2019-04-14T05:02:02.946Z,975.59
2019-04-14T05:03:03.662Z,975.64
2019-04-14T05:04:02.829Z,975.62
2019-04-14T05:05:03.494Z,975.63
2019-04-14T05:06:02.822Z,975.63
2019-04-14T05:07:03.538Z,975.66
2019-04-14T05:08:02.906Z,975.70
2019-04-14T05:09:03.414Z,975.71
2019-04-14T05:10:02.783Z,975.66
2019-04-14T05:11:03.261Z,975.67
2019-04-14T05:12:02.818Z,975.67
2019-04-14T05:13:02.980Z,975.71
2019-04-14T05:14:02.739Z,975.71
2019-04-14T05:15:03.592Z,975.69
2019-04-14T05:16:02.691Z,975.71
2019-04-14T05:17:03.657Z,975.75
2019-04-14T05:18:02.845Z,975.73
2019-04-14T05:19:14.043Z,975.78
2019-04-14T05:20:03.654Z,975.79
2019-04-14T05:21:03.847Z,975.80
2019-04-14T05:22:02.817Z,975.83
2019-04-14T05:23:03.755Z,975.78
2019-04-14T05:24:02.871Z,975.86
2019-04-14T05:25:03.618Z,975.79
2019-04-14T05:26:02.794Z,975.83
2019-04-14T05:27:03.549Z,975.82
2019-04-14T05:28:02.732Z,975.84
2019-04-14T05:29:03.590Z,975.87
2019-04-14T05:30:02.711Z,975.89
2019-04-14T05:31:03.343Z,975.92
2019-04-14T05:32:02.517Z,975.94
2019-04-14T05:33:03.065Z,975.90
2019-04-14T05:34:02.501Z,975.96
2019-04-14T05:35:03.163Z,975.94
2019-04-14T05:36:02.494Z,975.90
2019-04-14T05:37:02.902Z,975.96
2019-04-14T05:38:02.527Z,976.04
2019-04-14T05:39:02.573Z,975.96
2019-04-14T05:40:03.685Z,975.97
2019-04-14T05:41:02.787Z,975.96
2019-04-14T05:42:08.622Z,975.97
2019-04-14T05:43:04.335Z,975.96
2019-04-14T05:44:03.579Z,975.99
2019-04-14T05:45:02.587Z,976.00
2019-04-14T05:46:03.481Z,975.98
2019-04-14T05:47:02.355Z,976.05
2019-04-14T05:48:03.244Z,976.01
2019-04-14T05:49:02.332Z,975.99
2019-04-14T05:50:03.184Z,976.00
2019-04-14T05:51:02.336Z,976.03
2019-04-14T05:52:03.348Z,976.03
2019-04-14T05:53:02.318Z,976.03
2019-04-14T05:54:03.321Z,976.00
2019-04-14T05:55:02.532Z,976.04
2019-04-14T05:56:03.472Z,976.06
2019-04-14T05:57:02.397Z,976.03
2019-04-14T05:58:03.515Z,976.10
2019-04-14T05:59:02.314Z,976.13
2019-04-14T06:00:02.221Z,976.12
2019-04-14T06:01:02.474Z,976.11
2019-04-14T06:02:02.577Z,976.13
2019-04-14T06:03:02.206Z,976.11
2019-04-14T06:04:02.482Z,976.14
2019-04-14T06:05:02.160Z,976.14
2019-04-14T06:06:02.149Z,976.14
2019-04-14T06:07:02.140Z,976.21
2019-04-14T06:08:02.158Z,976.14
2019-04-14T06:09:02.184Z,976.20
2019-04-14T06:10:02.108Z,976.14
2019-04-14T06:11:02.115Z,976.16
2019-04-14T06:12:02.107Z,976.14
2019-04-14T06:13:02.099Z,976.11
2019-04-14T06:14:02.071Z,976.11
2019-04-14T06:15:02.051Z,976.14
2019-04-14T06:16:02.043Z,976.15
2019-04-14T06:17:02.033Z,976.15
2019-04-14T06:18:02.022Z,976.15
2019-04-14T06:19:02.028Z,976.13
2019-04-14T06:20:02.008Z,976.19
2019-04-14T06:21:02.149Z,976.20
2019-04-14T06:22:01.972Z,976.20
2019-04-14T06:23:01.971Z,976.23
2019-04-14T06:24:01.975Z,976.26
2019-04-14T06:25:01.945Z,976.18
2019-04-14T06:26:01.936Z,976.20
2019-04-14T06:27:01.925Z,976.28
2019-04-14T06:28:02.010Z,976.18
2019-04-14T06:29:01.915Z,976.21
2019-04-14T06:30:01.900Z,976.21
2019-04-14T06:31:01.877Z,976.22
2019-04-14T06:32:01.884Z,976.22
2019-04-14T06:33:01.917Z,976.24
2019-04-14T06:34:01.879Z,976.24
2019-04-14T06:35:01.836Z,976.19
2019-04-14T06:36:01.863Z,976.20
2019-04-14T06:37:01.814Z,976.22
2019-04-14T06:38:01.827Z,976.23
2019-04-14T06:39:01.815Z,976.28
2019-04-14T06:40:01.779Z,976.25
2019-04-14T06:41:01.791Z,976.23
2019-04-14T06:42:01.786Z,976.29
2019-04-14T06:43:01.807Z,976.30
2019-04-14T06:44:01.750Z,976.29
2019-04-14T06:45:01.723Z,976.29
2019-04-14T06:46:01.734Z,976.27
2019-04-14T06:47:01.722Z,976.23
2019-04-14T06:48:01.692Z,976.22
2019-04-14T06:49:01.709Z,976.22
2019-04-14T06:50:01.731Z,976.27
2019-04-14T06:51:01.688Z,976.20
2019-04-14T06:52:01.653Z,976.21
2019-04-14T06:53:01.646Z,976.20
2019-04-14T06:54:01.647Z,976.17
2019-04-14T06:55:01.627Z,976.23
2019-04-14T06:56:01.616Z,976.22
2019-04-14T06:57:02.147Z,976.21
2019-04-14T06:58:01.605Z,976.23
2019-04-14T06:59:01.588Z,976.23
2019-04-14T07:00:01.566Z,976.27
2019-04-14T07:01:01.570Z,976.20
2019-04-14T07:02:01.929Z,976.17
2019-04-14T07:03:01.548Z,976.19
2019-04-14T07:04:01.551Z,976.25
2019-04-14T07:05:01.514Z,976.27
2019-04-14T07:06:01.497Z,976.26
2019-04-14T07:07:01.487Z,976.23
2019-04-14T07:08:01.475Z,976.26
2019-04-14T07:09:01.470Z,976.19
2019-04-14T07:10:01.463Z,976.22
2019-04-14T07:11:01.456Z,976.17
2019-04-14T07:12:01.464Z,976.13
2019-04-14T07:13:01.420Z,976.16
2019-04-14T07:14:01.407Z,976.19
2019-04-14T07:15:01.412Z,976.15
2019-04-14T07:16:01.387Z,976.17
2019-04-14T07:17:01.380Z,976.16
2019-04-14T07:18:01.368Z,976.17
2019-04-14T07:19:01.375Z,976.12
2019-04-14T07:20:02.583Z,976.10
2019-04-14T07:21:02.239Z,976.14
2019-04-14T07:22:01.359Z,976.20
2019-04-14T07:23:01.311Z,976.15
2019-04-14T07:24:01.297Z,976.13
2019-04-14T07:25:01.301Z,976.14
2019-04-14T07:26:01.372Z,976.17
2019-04-14T07:27:01.275Z,976.12
2019-04-14T07:28:01.282Z,976.11
2019-04-14T07:29:01.287Z,976.05
2019-04-14T07:30:01.241Z,976.11
2019-04-14T07:31:01.227Z,976.06
2019-04-14T07:32:01.213Z,976.04
2019-04-14T07:33:01.201Z,975.99
2019-04-14T07:34:01.195Z,975.96
2019-04-14T07:35:01.234Z,975.98
2019-04-14T07:36:01.182Z,976.02
2019-04-14T07:37:01.160Z,975.94
2019-04-14T07:38:01.162Z,975.92
2019-04-14T07:39:01.137Z,975.90
2019-04-14T07:40:01.136Z,975.97
2019-04-14T07:41:01.121Z,975.93
2019-04-14T07:42:01.108Z,975.90
2019-04-14T07:43:01.105Z,975.98
2019-04-14T07:44:01.114Z,975.95
2019-04-14T07:45:01.086Z,975.96
2019-04-14T07:46:01.062Z,975.95
2019-04-14T07:47:01.051Z,975.99
2019-04-14T07:48:01.184Z,975.91
2019-04-14T07:49:01.030Z,975.92
2019-04-14T07:50:13.794Z,975.88
2019-04-14T07:51:02.019Z,975.85
2019-04-14T07:52:01.023Z,975.87
2019-04-14T07:53:00.989Z,975.90
2019-04-14T07:54:00.997Z,975.86
2019-04-14T07:55:01.073Z,975.86
2019-04-14T07:56:00.954Z,975.82
2019-04-14T07:57:00.950Z,975.88
2019-04-14T07:58:00.936Z,975.94
2019-04-14T07:59:00.936Z,975.90
2019-04-14T08:00:00.930Z,975.84
2019-04-14T08:01:00.898Z,975.84
2019-04-14T08:02:00.897Z,975.88
2019-04-14T08:03:00.879Z,975.91
2019-04-14T08:04:00.872Z,975.88
2019-04-14T08:05:00.891Z,975.96
2019-04-14T08:06:00.855Z,975.89
2019-04-14T08:07:00.840Z,975.94
2019-04-14T08:08:00.830Z,975.96
2019-04-14T08:09:00.818Z,975.89
2019-04-14T08:10:00.802Z,975.87
2019-04-14T08:11:00.799Z,975.87
2019-04-14T08:12:00.782Z,975.87
2019-04-14T08:13:00.768Z,975.87
2019-04-14T08:14:00.757Z,975.89
2019-04-14T08:15:00.750Z,975.86
2019-04-14T08:16:00.754Z,975.88
2019-04-14T08:17:00.772Z,975.81
2019-04-14T08:18:00.717Z,975.85
2019-04-14T08:19:00.701Z,975.89
2019-04-14T08:20:00.692Z,975.75
2019-04-14T08:21:00.700Z,975.91
2019-04-14T08:22:00.669Z,975.83
2019-04-14T08:23:00.659Z,975.86
2019-04-14T08:24:00.744Z,975.78
2019-04-14T08:25:00.648Z,975.86
2019-04-14T08:26:00.638Z,975.77
2019-04-14T08:27:00.618Z,975.87
2019-04-14T08:28:00.608Z,975.73
2019-04-14T08:29:01.130Z,975.77
2019-04-14T08:30:00.583Z,975.80
2019-04-14T08:31:00.616Z,975.84
2019-04-14T08:32:00.565Z,975.83
2019-04-14T08:33:00.558Z,975.82
2019-04-14T08:34:00.544Z,975.83
2019-04-14T08:35:00.535Z,975.80
2019-04-14T08:36:00.523Z,975.82
2019-04-14T08:37:00.510Z,975.79
2019-04-14T08:38:00.501Z,975.73
2019-04-14T08:39:00.490Z,975.76
2019-04-14T08:40:00.479Z,975.79
2019-04-14T08:41:00.489Z,975.81
2019-04-14T08:42:00.457Z,975.83
2019-04-14T08:43:00.448Z,975.81
2019-04-14T08:44:00.433Z,975.88
2019-04-14T08:45:00.423Z,975.79
2019-04-14T08:46:00.522Z,975.78
2019-04-14T08:47:00.398Z,975.76
2019-04-14T08:48:00.387Z,975.74
2019-04-14T08:49:00.377Z,975.73
2019-04-14T08:50:00.369Z,975.78
2019-04-14T08:51:00.356Z,975.77
2019-04-14T08:52:00.346Z,975.73
2019-04-14T08:53:00.338Z,975.81
2019-04-14T08:54:00.325Z,975.77
2019-04-14T08:55:00.316Z,975.75
2019-04-14T08:56:00.331Z,975.72
2019-04-14T08:57:00.290Z,975.79
2019-04-14T08:58:00.292Z,975.80
2019-04-14T08:59:00.269Z,975.79
2019-04-14T09:00:00.278Z,975.77
2019-04-14T09:01:00.249Z,975.76
2019-04-14T09:02:00.246Z,975.73
2019-04-14T09:03:00.231Z,975.76
2019-04-14T09:04:00.214Z,975.70
2019-04-14T09:05:00.205Z,975.76
2019-04-14T09:06:00.194Z,975.76
2019-04-14T09:07:00.189Z,975.75
2019-04-14T09:08:00.178Z,975.74
2019-04-14T09:09:00.171Z,975.69
2019-04-14T09:10:00.153Z,975.65
2019-04-14T09:11:00.149Z,975.68
2019-04-14T09:12:00.153Z,975.66
2019-04-14T09:13:00.118Z,975.68
2019-04-14T09:14:00.118Z,975.76
2019-04-14T09:15:00.099Z,975.78
2019-04-14T09:16:00.094Z,975.69
2019-04-14T09:17:00.086Z,975.69
2019-04-14T09:18:00.075Z,975.72
2019-04-14T09:19:07.633Z,975.67
2019-04-14T09:20:01.042Z,975.69
2019-04-14T09:21:00.034Z,975.67
2019-04-14T09:22:00.080Z,975.70
2019-04-14T09:23:00.087Z,975.77
2019-04-14T09:24:00.002Z,975.64
2019-04-14T09:24:59.989Z,975.67
2019-04-14T09:25:59.997Z,975.63
2019-04-14T09:26:59.974Z,975.59
2019-04-14T09:27:59.957Z,975.63
2019-04-14T09:28:59.947Z,975.66
2019-04-14T09:29:59.936Z,975.64
2019-04-14T09:30:59.926Z,975.65
2019-04-14T09:31:59.925Z,975.60
2019-04-14T09:32:59.905Z,975.57
2019-04-14T09:33:59.902Z,975.68
2019-04-14T09:34:59.886Z,975.57
2019-04-14T09:35:59.873Z,975.60
2019-04-14T09:36:59.869Z,975.67
2019-04-14T09:37:59.857Z,975.62
2019-04-14T09:38:59.841Z,975.64
2019-04-14T09:39:59.832Z,975.51
2019-04-14T09:40:59.822Z,975.59
2019-04-14T09:41:59.820Z,975.68
2019-04-14T09:42:59.803Z,975.57
2019-04-14T09:43:59.804Z,975.65
2019-04-14T09:44:59.783Z,975.59
2019-04-14T09:45:59.768Z,975.66
2019-04-14T09:46:59.779Z,975.68
2019-04-14T09:47:59.747Z,975.65
2019-04-14T09:48:59.738Z,975.66
2019-04-14T09:49:59.727Z,975.67
2019-04-14T09:51:05.119Z,975.65
2019-04-14T09:52:01.182Z,975.67
2019-04-14T09:52:59.692Z,975.64
2019-04-14T09:53:59.680Z,975.56
2019-04-14T09:54:59.673Z,975.63
2019-04-14T09:55:59.656Z,975.63
2019-04-14T09:56:59.659Z,975.52
2019-04-14T09:57:59.766Z,975.57
2019-04-14T09:58:59.630Z,975.52
2019-04-14T09:59:59.616Z,975.57
2019-04-14T10:00:59.605Z,975.62
2019-04-14T10:01:59.591Z,975.58
2019-04-14T10:02:59.599Z,975.58
2019-04-14T10:03:59.569Z,975.55
2019-04-14T10:04:59.606Z,975.50
2019-04-14T10:05:59.551Z,975.57
2019-04-14T10:06:59.536Z,975.54
2019-04-14T10:07:59.538Z,975.50
2019-04-14T10:08:59.515Z,975.49
2019-04-14T10:09:59.505Z,975.48
2019-04-14T10:10:59.523Z,975.51
2019-04-14T10:11:59.480Z,975.44
2019-04-14T10:12:59.503Z,975.47
2019-04-14T10:13:59.458Z,975.46
2019-04-14T10:14:59.450Z,975.44
2019-04-14T10:15:59.441Z,975.40
2019-04-14T10:17:01.354Z,975.39
2019-04-14T10:17:59.422Z,975.45
2019-04-14T10:18:59.404Z,975.45
2019-04-14T10:19:59.399Z,975.48
2019-04-14T10:20:59.385Z,975.49
2019-04-14T10:21:59.371Z,975.47
2019-04-14T10:22:59.368Z,975.50
2019-04-14T10:23:59.350Z,975.43
2019-04-14T10:24:59.351Z,975.45
2019-04-14T10:25:59.324Z,975.53
2019-04-14T10:26:59.349Z,975.44
2019-04-14T10:27:59.316Z,975.45
2019-04-14T10:28:59.299Z,975.37
2019-04-14T10:29:59.281Z,975.40
2019-04-14T10:30:59.268Z,975.47
2019-04-14T10:31:59.257Z,975.35
2019-04-14T10:32:59.250Z,975.36
2019-04-14T10:33:59.233Z,975.37
2019-04-14T10:34:59.222Z,975.34
2019-04-14T10:35:59.211Z,975.29
2019-04-14T10:36:59.206Z,975.34
2019-04-14T10:37:59.219Z,975.31
2019-04-14T10:38:59.179Z,975.31
2019-04-14T10:39:59.174Z,975.21
2019-04-14T10:40:59.155Z,975.24
2019-04-14T10:41:59.144Z,975.23
2019-04-14T10:42:59.191Z,975.30
2019-04-14T10:43:59.124Z,975.31
2019-04-14T10:44:59.125Z,975.25
2019-04-14T10:45:59.102Z,975.14
2019-04-14T10:46:59.090Z,975.12
2019-04-14T10:47:59.075Z,975.17
2019-04-14T10:48:59.086Z,975.22
2019-04-14T10:49:59.053Z,975.25
2019-04-14T10:50:59.046Z,975.18
2019-04-14T10:51:59.032Z,975.22
2019-04-14T10:52:59.023Z,975.23
2019-04-14T10:53:59.014Z,975.19
2019-04-14T10:54:59.020Z,975.17
2019-04-14T10:55:58.995Z,975.18
2019-04-14T10:57:01.096Z,975.16
2019-04-14T10:57:58.962Z,975.15
2019-04-14T10:58:58.963Z,975.11
2019-04-14T10:59:58.942Z,975.10
2019-04-14T11:00:58.935Z,975.14
2019-04-14T11:01:59.141Z,975.12
2019-04-14T11:02:58.908Z,975.17
2019-04-14T11:03:58.916Z,975.13
2019-04-14T11:04:58.885Z,975.08
2019-04-14T11:05:58.877Z,975.15
2019-04-14T11:06:58.864Z,975.11
2019-04-14T11:07:58.855Z,975.20
2019-04-14T11:08:58.874Z,975.17
2019-04-14T11:09:58.828Z,975.13
2019-04-14T11:10:58.819Z,975.11
2019-04-14T11:11:58.810Z,975.15
2019-04-14T11:12:58.807Z,975.07
2019-04-14T11:13:59.676Z,975.14
2019-04-14T11:15:00.023Z,975.18
2019-04-14T11:15:58.762Z,975.15
2019-04-14T11:16:58.753Z,975.19
2019-04-14T11:17:58.742Z,975.19
2019-04-14T11:18:58.741Z,975.27
2019-04-14T11:19:58.974Z,975.26
2019-04-14T11:20:58.704Z,975.25
2019-04-14T11:21:58.701Z,975.25
2019-04-14T11:23:03.432Z,975.27
2019-04-14T11:23:59.684Z,975.27
2019-04-14T11:24:58.751Z,975.30
2019-04-14T11:25:58.740Z,975.21
2019-04-14T11:26:58.659Z,975.27
2019-04-14T11:27:58.628Z,975.27
2019-04-14T11:28:58.644Z,975.23
2019-04-14T11:29:58.613Z,975.16
2019-04-14T11:30:58.593Z,975.24
2019-04-14T11:31:58.580Z,975.22
2019-04-14T11:32:58.572Z,975.22
2019-04-14T11:33:58.566Z,975.26
2019-04-14T11:34:58.561Z,975.26
2019-04-14T11:35:58.547Z,975.30
2019-04-14T11:36:58.526Z,975.30
2019-04-14T11:37:58.617Z,975.27
2019-04-14T11:38:58.502Z,975.28
2019-04-14T11:39:58.505Z,975.24
2019-04-14T11:40:58.526Z,975.23
2019-04-14T11:41:58.488Z,975.21
2019-04-14T11:42:58.478Z,975.19
2019-04-14T11:43:58.456Z,975.27
2019-04-14T11:44:58.457Z,975.21
2019-04-14T11:45:58.433Z,975.24
2019-04-14T11:46:58.415Z,975.23
2019-04-14T11:47:58.409Z,975.23
2019-04-14T11:48:58.391Z,975.22
2019-04-14T11:49:58.388Z,975.28
2019-04-14T11:50:58.381Z,975.22
2019-04-14T11:51:58.362Z,975.24
2019-04-14T11:52:58.351Z,975.20
2019-04-14T11:53:58.336Z,975.21
2019-04-14T11:54:58.345Z,975.15
2019-04-14T11:55:58.319Z,975.22
2019-04-14T11:56:58.345Z,975.32
2019-04-14T11:57:58.297Z,975.36
2019-04-14T11:58:58.295Z,975.33
2019-04-14T11:59:58.286Z,975.39
2019-04-14T12:00:58.263Z,975.38
2019-04-14T12:01:58.346Z,975.40
2019-04-14T12:02:58.281Z,975.45
2019-04-14T12:03:58.240Z,975.41
2019-04-14T12:04:58.250Z,975.31
2019-04-14T12:05:58.220Z,975.27
2019-04-14T12:06:58.203Z,975.30
2019-04-14T12:07:58.187Z,975.35
2019-04-14T12:08:58.198Z,975.38
2019-04-14T12:09:58.208Z,975.35
2019-04-14T12:10:58.168Z,975.37
2019-04-14T12:11:58.144Z,975.41
2019-04-14T12:12:58.135Z,975.40
2019-04-14T12:13:58.126Z,975.36
2019-04-14T12:14:58.113Z,975.34
2019-04-14T12:15:58.129Z,975.33
2019-04-14T12:16:58.114Z,975.41
2019-04-14T12:17:58.081Z,975.37
2019-04-14T12:18:58.075Z,975.38
2019-04-14T12:19:58.082Z,975.43
2019-04-14T12:20:58.057Z,975.48
2019-04-14T12:22:07.743Z,975.48
2019-04-14T12:22:59.019Z,975.43
2019-04-14T12:23:58.010Z,975.46
2019-04-14T12:24:58.025Z,975.41
2019-04-14T12:26:05.351Z,975.40
2019-04-14T12:26:58.979Z,975.43
2019-04-14T12:27:58.042Z,975.41
2019-04-14T12:28:59.195Z,975.43
2019-04-14T12:29:58.905Z,975.43
2019-04-14T12:30:57.939Z,975.41
2019-04-14T12:31:57.919Z,975.40
2019-04-14T12:32:57.966Z,975.38
2019-04-14T12:33:57.899Z,975.42
2019-04-14T12:34:57.910Z,975.44
2019-04-14T12:35:57.970Z,975.47
2019-04-14T12:36:57.867Z,975.47
2019-04-14T12:37:57.854Z,975.38
2019-04-14T12:38:58.003Z,975.47
2019-04-14T12:39:57.848Z,975.44
2019-04-14T12:41:00.222Z,975.50
2019-04-14T12:41:57.837Z,975.47
2019-04-14T12:42:57.813Z,975.46
2019-04-14T12:43:57.786Z,975.49
2019-04-14T12:44:57.778Z,975.48
2019-04-14T12:45:57.849Z,975.49
2019-04-14T12:46:57.753Z,975.44
2019-04-14T12:47:57.760Z,975.42
2019-04-14T12:48:57.737Z,975.45
2019-04-14T12:49:57.723Z,975.47
2019-04-14T12:50:57.721Z,975.47
2019-04-14T12:51:57.704Z,975.39
2019-04-14T12:52:57.690Z,975.46
2019-04-14T12:53:57.676Z,975.38
2019-04-14T12:54:57.686Z,975.38
2019-04-14T12:55:57.726Z,975.43
2019-04-14T12:56:57.659Z,975.42
2019-04-14T12:57:57.631Z,975.44
2019-04-14T12:58:57.623Z,975.42
2019-04-14T12:59:57.608Z,975.39
2019-04-14T13:00:58.244Z,975.40
2019-04-14T13:01:57.589Z,975.40
2019-04-14T13:02:57.599Z,975.44
2019-04-14T13:03:57.567Z,975.40
2019-04-14T13:04:57.566Z,975.47
2019-04-14T13:05:57.550Z,975.43
2019-04-14T13:06:57.554Z,975.48
2019-04-14T13:07:57.522Z,975.48
2019-04-14T13:08:57.513Z,975.42
2019-04-14T13:09:57.500Z,975.42
2019-04-14T13:10:57.496Z,975.40
2019-04-14T13:11:57.493Z,975.44
2019-04-14T13:12:57.469Z,975.36
2019-04-14T13:13:57.460Z,975.42
2019-04-14T13:14:57.445Z,975.47